createdAt,value
2023-01-09T00:01:30.598Z,13.52
2023-01-09T00:03:58.401Z,6.25
2023-01-09T00:06:26.058Z,7.70
2023-01-09T00:08:54.293Z,7.43
2023-01-09T00:11:22.153Z,6.13
2023-01-09T00:13:49.720Z,6.45
2023-01-09T00:16:23.281Z,8.52
2023-01-09T00:18:51.196Z,5.80
2023-01-09T00:21:59.678Z,17.48
2023-01-09T00:24:28.949Z,6.70
2023-01-09T00:26:56.574Z,6.47
2023-01-09T00:29:24.331Z,6.30
2023-01-09T00:31:52.096Z,8.82
2023-01-09T00:34:19.858Z,9.27
2023-01-09T00:36:48.875Z,7.25
2023-01-09T00:39:16.595Z,8.95
2023-01-09T00:41:48.975Z,9.32
2023-01-09T00:44:24.630Z,7.95
2023-01-09T00:46:57.814Z,8.70
2023-01-09T00:49:28.841Z,5.78
2023-01-09T00:51:56.609Z,7.53
2023-01-09T00:54:24.194Z,9.18
2023-01-09T00:56:51.935Z,6.78
2023-01-09T00:59:19.713Z,7.38
2023-01-09T01:01:50.329Z,6.75
2023-01-09T01:04:36.562Z,5.70
2023-01-09T01:07:25.194Z,7.30
2023-01-09T01:09:53.245Z,9.57
2023-01-09T01:12:21.751Z,9.13
2023-01-09T01:14:49.277Z,7.10
2023-01-09T01:17:17.141Z,5.30
2023-01-09T01:19:44.611Z,5.53
2023-01-09T01:22:12.397Z,4.53
2023-01-09T01:24:39.932Z,4.15
2023-01-09T01:27:07.684Z,5.25
2023-01-09T01:29:35.454Z,4.93
2023-01-09T01:32:03.330Z,3.30
2023-01-09T01:34:31.024Z,4.40
2023-01-09T01:36:59.359Z,4.30
2023-01-09T01:39:27.741Z,3.47
2023-01-09T01:41:56.630Z,4.47
2023-01-09T01:44:58.825Z,4.55
2023-01-09T01:47:33.120Z,3.60
2023-01-09T01:50:04.337Z,4.20
2023-01-09T01:52:33.819Z,3.80
2023-01-09T01:55:07.171Z,3.58
2023-01-09T01:57:35.623Z,4.20
2023-01-09T02:00:04.513Z,4.53
2023-01-09T02:02:34.593Z,4.00
2023-01-09T02:05:05.701Z,3.70
2023-01-09T02:07:33.465Z,4.10
2023-01-09T02:10:01.946Z,4.03
2023-01-09T02:12:30.398Z,3.88
2023-01-09T02:15:08.634Z,3.40
2023-01-09T02:17:36.199Z,4.72
2023-01-09T02:20:28.303Z,3.75
2023-01-09T02:23:29.555Z,5.07
2023-01-09T02:26:16.309Z,3.88
2023-01-09T02:29:14.972Z,4.78
2023-01-09T02:32:05.984Z,5.65
2023-01-09T02:34:55.323Z,4.67
2023-01-09T02:37:36.299Z,4.18
2023-01-09T02:40:11.287Z,4.00
2023-01-09T02:42:41.989Z,3.63
2023-01-09T02:45:10.038Z,5.10
2023-01-09T02:47:46.017Z,3.63
2023-01-09T02:50:18.581Z,6.00
2023-01-09T02:53:20.339Z,3.72
2023-01-09T02:56:03.852Z,4.60
2023-01-09T02:58:52.113Z,4.05
2023-01-09T03:01:53.518Z,4.15
2023-01-09T03:04:46.540Z,3.63
2023-01-09T03:07:33.428Z,3.58
2023-01-09T03:10:09.473Z,3.85
2023-01-09T03:12:38.318Z,3.17
2023-01-09T03:15:11.773Z,5.22
2023-01-09T03:17:43.725Z,3.03
2023-01-09T03:20:15.374Z,4.38
2023-01-09T03:22:55.349Z,4.50
2023-01-09T03:25:28.445Z,3.95
2023-01-09T03:28:02.744Z,3.97
2023-01-09T03:30:32.877Z,3.70
2023-01-09T03:33:01.016Z,4.13
2023-01-09T03:35:28.790Z,3.22
2023-01-09T03:37:56.476Z,2.90
2023-01-09T03:40:24.118Z,3.67
2023-01-09T03:42:51.871Z,3.72
2023-01-09T03:45:19.466Z,3.75
2023-01-09T03:47:47.129Z,3.75
2023-01-09T03:50:15.672Z,3.05
2023-01-09T03:52:43.465Z,3.20
2023-01-09T03:55:11.159Z,2.60
2023-01-09T03:57:38.576Z,3.30
2023-01-09T04:00:06.960Z,2.40
2023-01-09T04:02:40.044Z,2.67
2023-01-09T04:05:08.197Z,2.63
2023-01-09T04:07:35.751Z,3.63
2023-01-09T04:10:04.136Z,2.60
2023-01-09T04:12:31.687Z,3.95
2023-01-09T04:14:59.468Z,3.30
2023-01-09T04:17:27.006Z,4.00
2023-01-09T04:19:54.599Z,4.57
2023-01-09T04:22:22.257Z,3.85
2023-01-09T04:24:49.913Z,3.85
2023-01-09T04:27:18.062Z,3.65
2023-01-09T04:29:46.301Z,4.10
2023-01-09T04:32:14.937Z,4.13
2023-01-09T04:34:42.704Z,3.28
2023-01-09T04:37:10.352Z,2.70
2023-01-09T04:39:38.309Z,2.92
2023-01-09T04:42:05.969Z,2.22
2023-01-09T04:44:33.564Z,2.58
2023-01-09T04:47:01.194Z,2.45
2023-01-09T04:49:29.083Z,3.50
2023-01-09T04:51:56.726Z,4.03
2023-01-09T04:54:24.386Z,3.53
2023-01-09T04:56:51.953Z,4.35
2023-01-09T04:59:22.600Z,2.88
2023-01-09T05:01:52.231Z,3.17
2023-01-09T05:04:20.120Z,3.47
2023-01-09T05:06:47.809Z,3.88
2023-01-09T05:09:15.283Z,3.58
2023-01-09T05:11:43.037Z,2.67
2023-01-09T05:14:10.809Z,3.65
2023-01-09T05:16:38.482Z,4.03
2023-01-09T05:19:06.203Z,3.25
2023-01-09T05:21:33.789Z,3.00
2023-01-09T05:24:01.446Z,3.35
2023-01-09T05:26:28.994Z,2.28
2023-01-09T05:28:56.774Z,1.60
2023-01-09T05:31:26.369Z,1.77
2023-01-09T05:33:54.446Z,1.80
2023-01-09T05:36:22.150Z,1.35
2023-01-09T05:38:49.881Z,0.93
2023-01-09T05:41:17.767Z,1.27
2023-01-09T05:43:45.760Z,1.42
2023-01-09T05:46:14.695Z,1.40
2023-01-09T05:48:44.124Z,1.73
2023-01-09T05:51:12.500Z,1.30
2023-01-09T05:53:40.342Z,1.10
2023-01-09T05:56:10.764Z,1.20
2023-01-09T05:58:40.066Z,1.20
2023-01-09T06:01:08.269Z,0.90
2023-01-09T06:03:35.888Z,1.17
2023-01-09T06:06:03.654Z,1.08
2023-01-09T06:08:31.342Z,0.85
2023-01-09T06:10:59.191Z,1.02
2023-01-09T06:13:26.770Z,0.98
2023-01-09T06:15:54.286Z,1.10
2023-01-09T06:18:21.842Z,1.08
2023-01-09T06:20:49.599Z,1.05
2023-01-09T06:23:17.167Z,0.80
2023-01-09T06:25:44.727Z,0.98
2023-01-09T06:28:12.280Z,0.63
2023-01-09T06:30:39.742Z,0.85
2023-01-09T06:33:07.404Z,1.10
2023-01-09T06:35:35.096Z,0.70
2023-01-09T06:38:03.649Z,1.42
2023-01-09T06:40:31.725Z,0.80
2023-01-09T06:43:01.089Z,0.82
2023-01-09T06:45:28.708Z,0.80
2023-01-09T06:47:56.309Z,0.93
2023-01-09T06:50:24.073Z,0.90
2023-01-09T06:52:51.579Z,0.70
2023-01-09T06:55:19.327Z,0.80
2023-01-09T06:57:47.089Z,0.90
2023-01-09T07:00:15.078Z,0.70
2023-01-09T07:02:42.659Z,0.60
2023-01-09T07:05:12.320Z,0.70
2023-01-09T07:07:41.539Z,0.60
2023-01-09T07:10:11.023Z,0.90
2023-01-09T07:12:39.210Z,0.80
2023-01-09T07:15:08.359Z,0.60
2023-01-09T07:17:37.094Z,0.70
2023-01-09T07:20:05.364Z,0.70
2023-01-09T07:22:33.130Z,0.80
2023-01-09T07:25:00.955Z,0.60
2023-01-09T07:27:28.860Z,0.75
2023-01-09T07:29:56.665Z,0.63
2023-01-09T07:32:24.285Z,0.70
2023-01-09T07:34:52.691Z,0.93
2023-01-09T07:37:21.244Z,0.60
2023-01-09T07:39:48.881Z,0.90
2023-01-09T07:42:16.675Z,0.80
2023-01-09T07:44:45.101Z,0.70
2023-01-09T07:47:12.918Z,0.98
2023-01-09T07:49:40.780Z,0.82
2023-01-09T07:52:08.744Z,1.08
2023-01-09T07:54:37.243Z,0.80
2023-01-09T07:57:05.410Z,0.70
2023-01-09T07:59:33.014Z,0.80
2023-01-09T08:02:02.563Z,0.80
2023-01-09T08:04:30.121Z,0.60
2023-01-09T08:06:57.716Z,0.75
2023-01-09T08:09:25.514Z,1.27
2023-01-09T08:11:53.216Z,0.80
2023-01-09T08:14:21.203Z,0.80
2023-01-09T08:16:48.726Z,0.70
2023-01-09T08:19:16.598Z,0.60
2023-01-09T08:21:46.020Z,0.93
2023-01-09T08:24:13.900Z,0.80
2023-01-09T08:26:41.535Z,1.25
2023-01-09T08:29:10.842Z,0.98
2023-01-09T08:31:38.646Z,0.80
2023-01-09T08:34:06.240Z,1.00
2023-01-09T08:36:34.101Z,0.77
2023-01-09T08:39:01.680Z,0.85
2023-01-09T08:41:47.570Z,1.13
2023-01-09T08:44:33.755Z,1.15
2023-01-09T08:47:07.116Z,0.95
2023-01-09T08:49:39.317Z,0.93
2023-01-09T08:52:07.588Z,0.82
2023-01-09T08:54:38.851Z,1.08
2023-01-09T08:57:09.996Z,1.10
2023-01-09T08:59:37.787Z,1.05
2023-01-09T09:02:05.556Z,1.27
2023-01-09T09:04:33.282Z,0.88
2023-01-09T09:07:00.744Z,0.95
2023-01-09T09:09:28.388Z,1.00
2023-01-09T09:11:55.932Z,1.08
2023-01-09T09:14:46.750Z,0.90
2023-01-09T09:17:14.922Z,1.00
2023-01-09T09:19:46.166Z,0.70
2023-01-09T09:22:13.824Z,0.95
2023-01-09T09:24:41.278Z,0.98
2023-01-09T09:27:08.893Z,0.85
2023-01-09T09:29:36.617Z,1.15
2023-01-09T09:32:04.464Z,0.82
2023-01-09T09:34:32.482Z,0.80
2023-01-09T09:37:00.274Z,0.73
2023-01-09T09:39:27.856Z,1.30
2023-01-09T09:42:50.814Z,0.95
2023-01-09T09:45:46.119Z,0.90
2023-01-09T09:48:28.419Z,1.10
2023-01-09T09:51:39.357Z,1.50
2023-01-09T09:54:14.078Z,0.85
2023-01-09T09:56:51.511Z,1.25
2023-01-09T09:59:26.087Z,1.10
2023-01-09T10:02:06.225Z,0.82
2023-01-09T10:04:36.538Z,1.10
2023-01-09T10:07:09.623Z,1.85
2023-01-09T10:09:50.482Z,0.85
2023-01-09T10:12:29.948Z,0.80
2023-01-09T10:15:00.877Z,0.60
2023-01-09T10:17:35.673Z,0.80
2023-01-09T10:20:27.328Z,0.90
2023-01-09T10:23:31.914Z,1.00
2023-01-09T10:26:22.923Z,0.88
2023-01-09T10:29:04.195Z,0.70
2023-01-09T10:31:56.451Z,0.63
2023-01-09T10:34:39.238Z,0.95
2023-01-09T10:37:24.699Z,0.80
2023-01-09T10:40:05.165Z,0.80
2023-01-09T10:42:36.698Z,0.70
2023-01-09T10:47:50.611Z,0.85
2023-01-09T10:50:23.400Z,0.90
2023-01-09T10:52:53.384Z,1.33
2023-01-09T10:55:32.743Z,1.15
2023-01-09T10:58:04.704Z,1.38
2023-01-09T11:00:32.275Z,0.90
2023-01-09T11:03:00.201Z,1.73
2023-01-09T11:05:32.739Z,0.82
2023-01-09T11:08:20.131Z,0.80
2023-01-09T11:10:53.463Z,1.08
2023-01-09T11:13:25.351Z,0.90
2023-01-09T11:16:16.251Z,1.65
2023-01-09T11:18:55.717Z,0.82
2023-01-09T11:21:29.628Z,0.88
2023-01-09T11:24:02.688Z,0.88
2023-01-09T11:26:30.747Z,1.08
2023-01-09T11:29:14.636Z,1.10
2023-01-09T11:31:54.033Z,1.25
2023-01-09T11:34:28.718Z,1.45
2023-01-09T11:37:14.495Z,1.45
2023-01-09T11:39:48.260Z,0.93
2023-01-09T11:42:51.869Z,0.95
2023-01-09T11:45:30.896Z,0.82
2023-01-09T11:47:59.081Z,1.15
2023-01-09T11:50:29.014Z,1.13
2023-01-09T11:53:17.647Z,1.52
2023-01-09T11:55:47.261Z,2.55
2023-01-09T11:58:21.579Z,1.13
2023-01-09T12:01:14.780Z,1.17
2023-01-09T12:04:07.167Z,0.90
2023-01-09T12:06:53.312Z,1.08
2023-01-09T12:09:25.910Z,2.05
2023-01-09T12:12:44.419Z,0.93
2023-01-09T12:15:49.968Z,1.10
2023-01-09T12:18:35.992Z,0.80
2023-01-09T12:21:35.538Z,1.10
2023-01-09T12:24:38.373Z,0.70
2023-01-09T12:27:24.112Z,0.93
2023-01-09T12:30:23.635Z,0.65
2023-01-09T12:33:04.490Z,0.88
2023-01-09T12:35:43.284Z,0.80
2023-01-09T12:38:30.122Z,1.25
2023-01-09T12:41:25.121Z,1.02
2023-01-09T12:44:15.624Z,1.10
2023-01-09T12:47:03.062Z,0.80
2023-01-09T12:49:38.905Z,0.73
2023-01-09T12:52:15.098Z,0.77
2023-01-09T12:54:58.741Z,1.00
2023-01-09T12:57:48.927Z,1.17
2023-01-09T13:00:30.391Z,0.85
2023-01-09T13:03:23.906Z,1.17
2023-01-09T13:05:53.756Z,0.63
2023-01-09T13:08:38.825Z,1.48
2023-01-09T13:11:20.803Z,1.35
2023-01-09T13:13:58.517Z,0.60
2023-01-09T13:16:34.177Z,0.80
2023-01-09T13:19:12.915Z,1.00
2023-01-09T13:21:42.818Z,0.70
2023-01-09T13:24:28.766Z,0.77
2023-01-09T13:27:01.434Z,1.35
2023-01-09T13:29:37.465Z,1.17
2023-01-09T13:32:20.299Z,0.60
2023-01-09T13:34:52.188Z,0.90
2023-01-09T13:40:26.519Z,0.70
2023-01-09T13:43:05.442Z,0.60
2023-01-09T13:45:35.754Z,0.80
2023-01-09T13:48:12.084Z,0.98
2023-01-09T13:50:40.373Z,0.60
2023-01-09T13:53:20.092Z,0.90
2023-01-09T13:55:59.710Z,1.50
2023-01-09T13:58:37.821Z,0.60
2023-01-09T14:01:27.190Z,0.90
2023-01-09T14:04:13.365Z,0.70
2023-01-09T14:07:02.318Z,1.13
2023-01-09T14:09:30.131Z,2.20
2023-01-09T14:12:06.089Z,0.63
2023-01-09T14:14:35.347Z,1.83
2023-01-09T14:17:14.900Z,1.00
2023-01-09T14:19:43.309Z,0.80
2023-01-09T14:22:30.365Z,1.02
2023-01-09T14:25:04.841Z,0.70
2023-01-09T14:28:03.537Z,1.42
2023-01-09T14:30:34.762Z,0.80
2023-01-09T14:33:27.093Z,1.15
2023-01-09T14:36:21.793Z,0.77
2023-01-09T14:38:53.541Z,0.95
2023-01-09T14:41:54.927Z,1.38
2023-01-09T14:44:30.304Z,0.70
2023-01-09T14:47:15.168Z,1.40
2023-01-09T14:50:25.381Z,0.93
2023-01-09T14:53:13.118Z,0.80
2023-01-09T14:55:58.152Z,1.23
2023-01-09T14:58:39.752Z,0.73
2023-01-09T15:01:10.801Z,0.82
2023-01-09T15:03:46.401Z,0.95
2023-01-09T15:06:19.236Z,1.33
2023-01-09T15:08:50.688Z,1.20
2023-01-09T15:13:50.698Z,0.85
2023-01-09T15:16:24.436Z,0.70
2023-01-09T15:18:57.898Z,1.40
2023-01-09T15:21:27.917Z,0.65
2023-01-09T15:24:11.348Z,0.88
2023-01-09T15:26:40.347Z,1.95
2023-01-09T15:29:20.547Z,0.70
2023-01-09T15:31:54.136Z,0.80
2023-01-09T15:34:24.544Z,0.70
2023-01-09T15:36:53.353Z,0.85
2023-01-09T15:39:36.153Z,1.00
2023-01-09T15:42:23.121Z,0.90
2023-01-09T15:44:57.266Z,0.80
2023-01-09T15:47:29.725Z,1.15
2023-01-09T15:49:58.597Z,1.33
2023-01-09T15:52:26.357Z,0.93
2023-01-09T15:54:54.454Z,1.08
2023-01-09T15:57:24.718Z,0.60
2023-01-09T15:59:56.702Z,1.35
2023-01-09T16:02:45.028Z,0.90
2023-01-09T16:05:17.397Z,1.35
2023-01-09T16:07:50.245Z,1.20
2023-01-09T16:10:30.501Z,0.80
2023-01-09T16:12:58.458Z,0.98
2023-01-09T16:15:27.438Z,1.08
2023-01-09T16:18:21.107Z,1.13
2023-01-09T16:21:23.472Z,0.90
2023-01-09T16:24:12.679Z,1.35
2023-01-09T16:26:40.522Z,0.88
2023-01-09T16:29:38.511Z,0.93
2023-01-09T16:32:07.205Z,0.70
2023-01-09T16:34:35.763Z,0.70
2023-01-09T16:37:05.574Z,1.33
2023-01-09T16:39:33.174Z,1.00
2023-01-09T16:42:19.847Z,1.10
2023-01-09T16:44:48.209Z,0.88
2023-01-09T16:47:16.262Z,0.95
2023-01-09T16:49:47.418Z,1.30
2023-01-09T16:52:20.295Z,0.93
2023-01-09T16:54:47.868Z,0.85
2023-01-09T16:57:18.793Z,1.35
2023-01-09T16:59:47.179Z,1.23
2023-01-09T17:02:20.400Z,1.05
2023-01-09T17:04:48.036Z,0.80
2023-01-09T17:07:17.219Z,1.25
2023-01-09T17:09:46.194Z,1.05
2023-01-09T17:12:22.159Z,0.95
2023-01-09T17:14:49.813Z,1.20
2023-01-09T17:17:18.202Z,0.77
2023-01-09T17:19:47.013Z,1.02
2023-01-09T17:22:15.894Z,1.20
2023-01-09T17:25:01.889Z,1.10
2023-01-09T17:27:56.081Z,1.05
2023-01-09T17:30:23.886Z,0.80
2023-01-09T17:32:51.463Z,1.05
2023-01-09T17:35:19.618Z,0.98
2023-01-09T17:37:47.601Z,1.42
2023-01-09T17:40:20.733Z,1.25
2023-01-09T17:42:48.788Z,1.10
2023-01-09T17:45:16.530Z,1.30
2023-01-09T17:47:44.350Z,1.08
2023-01-09T17:50:20.166Z,1.30
2023-01-09T17:52:52.380Z,0.77
2023-01-09T17:55:20.349Z,1.60
2023-01-09T17:57:48.119Z,1.30
2023-01-09T18:00:26.503Z,1.00
2023-01-09T18:02:54.834Z,1.15
2023-01-09T18:05:23.861Z,0.80
2023-01-09T18:07:51.803Z,0.90
2023-01-09T18:10:28.255Z,2.05
2023-01-09T18:12:56.948Z,1.25
2023-01-09T18:15:24.621Z,0.93
2023-01-09T18:17:52.797Z,1.25
2023-01-09T18:20:20.472Z,1.23
2023-01-09T18:22:49.634Z,1.40
2023-01-09T18:25:17.503Z,1.15
2023-01-09T18:27:45.328Z,1.30
2023-01-09T18:30:12.930Z,1.33
2023-01-09T18:32:40.484Z,1.10
2023-01-09T18:35:09.096Z,1.17
2023-01-09T18:37:37.114Z,1.75
2023-01-09T18:40:05.453Z,0.90
2023-01-09T18:42:33.993Z,2.47
2023-01-09T18:45:01.557Z,1.20
2023-01-09T18:47:29.236Z,1.98
2023-01-09T18:50:03.804Z,1.60
2023-01-09T18:52:31.409Z,1.13
2023-01-09T18:54:58.929Z,1.20
2023-01-09T18:57:26.446Z,1.02
2023-01-09T18:59:54.197Z,1.30
2023-01-09T19:02:26.352Z,1.75
2023-01-09T19:04:53.968Z,1.10
2023-01-09T19:07:21.818Z,1.55
2023-01-09T19:09:49.456Z,2.65
2023-01-09T19:12:17.097Z,0.93
2023-01-09T19:14:44.799Z,1.35
2023-01-09T19:17:12.513Z,1.52
2023-01-09T19:19:40.190Z,1.48
2023-01-09T19:22:08.099Z,1.00
2023-01-09T19:24:35.618Z,1.13
2023-01-09T19:27:03.172Z,1.48
2023-01-09T19:29:30.687Z,1.90
2023-01-09T19:31:58.734Z,1.40
2023-01-09T19:34:26.618Z,1.58
2023-01-09T19:36:54.398Z,1.38
2023-01-09T19:39:22.038Z,3.30
2023-01-09T19:41:49.597Z,1.65
2023-01-09T19:44:19.308Z,1.45
2023-01-09T19:46:46.753Z,1.35
2023-01-09T19:49:16.208Z,1.00
2023-01-09T19:51:44.740Z,1.23
2023-01-09T19:54:12.479Z,1.38
2023-01-09T19:56:43.858Z,2.45
2023-01-09T19:59:13.670Z,1.20
2023-01-09T20:01:41.853Z,1.50
2023-01-09T20:04:16.033Z,1.15
2023-01-09T20:06:46.185Z,0.95
2023-01-09T20:09:16.255Z,1.23
2023-01-09T20:11:44.987Z,1.38
2023-01-09T20:14:16.062Z,1.40
2023-01-09T20:16:43.945Z,1.30
2023-01-09T20:19:13.146Z,1.63
2023-01-09T20:21:42.648Z,1.45
2023-01-09T20:24:14.203Z,1.55
2023-01-09T20:29:09.602Z,0.90
2023-01-09T20:31:37.197Z,1.17
2023-01-09T20:34:04.941Z,2.03
2023-01-09T20:36:32.780Z,1.45
2023-01-09T20:39:03.747Z,1.23
2023-01-09T20:41:32.008Z,1.00
2023-01-09T20:44:07.199Z,1.60
2023-01-09T20:46:38.603Z,1.58
2023-01-09T20:49:08.090Z,1.30
2023-01-09T20:51:37.281Z,1.45
2023-01-09T20:54:04.940Z,1.27
2023-01-09T20:56:32.934Z,1.10
2023-01-09T20:59:01.310Z,1.45
2023-01-09T21:01:29.328Z,1.15
2023-01-09T21:03:58.621Z,1.08
2023-01-09T21:06:27.861Z,1.27
2023-01-09T21:08:55.634Z,1.67
2023-01-09T21:11:25.155Z,1.55
2023-01-09T21:13:53.046Z,0.95
2023-01-09T21:16:24.964Z,1.30
2023-01-09T21:18:54.574Z,1.08
2023-01-09T21:21:27.329Z,1.60
2023-01-09T21:23:57.590Z,1.52
2023-01-09T21:26:29.183Z,1.08
2023-01-09T21:31:34.405Z,1.50
2023-01-09T21:34:05.119Z,1.13
2023-01-09T21:36:32.946Z,1.00
2023-01-09T21:39:00.748Z,1.17
2023-01-09T21:41:46.845Z,1.33
2023-01-09T21:44:32.738Z,1.00
2023-01-09T21:47:01.830Z,1.00
2023-01-09T21:50:08.790Z,1.55
2023-01-09T21:52:37.395Z,1.48
2023-01-09T21:55:05.441Z,1.05
2023-01-09T21:57:32.898Z,1.48
2023-01-09T22:00:00.487Z,1.38
2023-01-09T22:02:28.035Z,1.35
2023-01-09T22:05:00.241Z,0.93
2023-01-09T22:07:27.695Z,1.30
2023-01-09T22:09:55.309Z,1.10
2023-01-09T22:12:22.829Z,1.20
2023-01-09T22:14:50.283Z,1.27
2023-01-09T22:17:17.769Z,1.13
2023-01-09T22:20:17.347Z,1.20
2023-01-09T22:22:44.812Z,1.00
2023-01-09T22:25:12.406Z,1.10
2023-01-09T22:27:40.267Z,1.27
2023-01-09T22:30:10.603Z,1.27
2023-01-09T22:32:38.106Z,0.90
2023-01-09T22:35:06.317Z,1.25
2023-01-09T22:37:34.175Z,1.30
2023-01-09T22:40:01.853Z,1.00
2023-01-09T22:42:29.292Z,1.15
2023-01-09T22:44:56.747Z,1.60
2023-01-09T22:47:24.421Z,0.90
2023-01-09T22:49:55.879Z,1.50
2023-01-09T22:52:23.812Z,1.27
2023-01-09T22:54:51.500Z,1.73
2023-01-09T22:57:19.078Z,1.33
2023-01-09T22:59:46.731Z,0.93
2023-01-09T23:02:14.588Z,1.10
2023-01-09T23:04:42.356Z,1.20
2023-01-09T23:07:09.900Z,1.23
2023-01-09T23:09:37.356Z,1.15
2023-01-09T23:12:06.261Z,1.10
2023-01-09T23:14:37.398Z,1.10
2023-01-09T23:17:09.964Z,1.23
2023-01-09T23:19:37.969Z,1.42
2023-01-09T23:22:05.937Z,1.38
2023-01-09T23:24:34.080Z,1.25
2023-01-09T23:27:01.909Z,1.15
2023-01-09T23:29:29.912Z,1.55
2023-01-09T23:31:58.131Z,1.38
2023-01-09T23:34:27.592Z,1.42
2023-01-09T23:36:57.430Z,1.30
2023-01-09T23:39:25.354Z,1.35
2023-01-09T23:42:11.687Z,1.20
2023-01-09T23:44:39.292Z,1.33
2023-01-09T23:47:07.080Z,1.17
2023-01-09T23:49:35.786Z,1.00
2023-01-09T23:52:06.002Z,1.35
2023-01-09T23:54:33.754Z,1.77
2023-01-09T23:57:01.821Z,1.80
2023-01-09T23:59:30.206Z,1.48
